Upper Greasewood Trading Pos, Arizona
Current Conditions -  °F | °C
As of 11:53 AM on Monday 20 Oct 2014 (Local Time) from KRQE Reporting Station
Overcast Overcast  
Wind Chill: 61°   Ceiling: 7000
Heat Index: 61°   Visibility: 10mi
Dew Point: 39°   Wind: 7mph
Humidity: 44%   Direction: 190°S
Pressure: 30.24"   Gusts: NA
Location:  36.4446°N, 109.262°W
Report Text: KRQE 201753Z AUTO 19006KT 10SM BKN070 OVC095 16/04 A3024 RMK AO2 SLP175 T01610039 10167 20006 58001 TSNO
Loading
Personal Weather Stations






























Interactive Weather Map
Tropical Storm Tracking
New forecast layout! Learn more

10-Day Weather Forecast

Advertisements
Track Severe Weather on mobile